createdAt,value
2022-10-29T00:01:51.812Z,67.05
2022-10-29T00:04:21.999Z,69.75
2022-10-29T00:06:52.377Z,69.29
2022-10-29T00:09:22.894Z,70.07
2022-10-29T00:11:53.259Z,70.18
2022-10-29T00:14:24.135Z,71.31
2022-10-29T00:16:54.430Z,71.21
2022-10-29T00:19:25.040Z,70.44
2022-10-29T00:21:55.438Z,70.57
2022-10-29T00:24:25.864Z,70.75
2022-10-29T00:26:56.230Z,72.05
2022-10-29T00:29:26.585Z,70.98
2022-10-29T00:31:56.954Z,72.21
2022-10-29T00:34:27.402Z,72.92
2022-10-29T00:36:57.682Z,72.29
2022-10-29T00:39:28.168Z,72.29
2022-10-29T00:41:58.676Z,72.34
2022-10-29T00:44:36.940Z,72.23
2022-10-29T00:47:25.391Z,72.63
2022-10-29T00:50:03.908Z,72.53
2022-10-29T00:52:37.948Z,72.94
2022-10-29T00:55:10.716Z,73.21
2022-10-29T00:57:44.995Z,73.29
2022-10-29T01:00:16.395Z,72.93
2022-10-29T01:02:47.306Z,73.45
2022-10-29T01:05:21.579Z,73.09
2022-10-29T01:07:52.025Z,73.45
2022-10-29T01:10:33.267Z,72.12
2022-10-29T01:13:29.834Z,72.71
2022-10-29T01:16:27.155Z,72.66
2022-10-29T01:19:17.377Z,72.89
2022-10-29T01:21:56.545Z,74.04
2022-10-29T01:24:48.230Z,73.54
2022-10-29T01:27:54.132Z,72.15
2022-10-29T01:30:42.738Z,73.55
2022-10-29T01:33:24.817Z,74.36
2022-10-29T01:36:03.123Z,73.82
2022-10-29T01:38:50.744Z,74.17
2022-10-29T01:41:32.086Z,74.00
2022-10-29T01:44:18.099Z,74.74
2022-10-29T01:47:04.236Z,74.57
2022-10-29T01:49:40.175Z,74.24
2022-10-29T01:52:14.830Z,74.50
2022-10-29T01:54:47.757Z,74.92
2022-10-29T01:57:31.678Z,74.67
2022-10-29T02:00:09.795Z,75.30
2022-10-29T02:02:52.049Z,75.25
2022-10-29T02:05:40.597Z,75.67
2022-10-29T02:08:20.575Z,75.73
2022-10-29T02:11:03.558Z,75.51
2022-10-29T02:13:38.680Z,76.52
2022-10-29T02:16:10.027Z,76.17
2022-10-29T02:18:49.132Z,77.71
2022-10-29T02:21:21.355Z,77.48
2022-10-29T02:23:52.079Z,77.29
2022-10-29T02:26:23.190Z,77.69
2022-10-29T02:28:53.445Z,78.21
2022-10-29T02:31:23.986Z,78.70
2022-10-29T02:33:55.473Z,78.72
2022-10-29T02:36:27.579Z,78.38
2022-10-29T02:38:57.929Z,78.66
2022-10-29T02:41:28.525Z,78.51
2022-10-29T02:43:58.979Z,79.77
2022-10-29T02:46:29.493Z,79.66
2022-10-29T02:48:59.774Z,79.76
2022-10-29T02:51:30.130Z,79.28
2022-10-29T02:54:00.429Z,79.49
2022-10-29T02:56:30.818Z,79.26
2022-10-29T02:59:01.294Z,79.91
2022-10-29T03:01:31.788Z,80.09
2022-10-29T03:04:02.294Z,80.63
2022-10-29T03:06:32.625Z,80.30
2022-10-29T03:09:02.896Z,81.23
2022-10-29T03:11:33.498Z,80.68
2022-10-29T03:14:03.896Z,80.25
2022-10-29T03:16:34.300Z,80.36
2022-10-29T03:19:04.967Z,80.28
2022-10-29T03:21:35.848Z,81.34
2022-10-29T03:24:07.306Z,81.58
2022-10-29T03:26:37.594Z,80.53
2022-10-29T03:29:07.908Z,82.29
2022-10-29T03:31:38.297Z,82.08
2022-10-29T03:34:08.634Z,81.86
2022-10-29T03:36:39.113Z,82.38
2022-10-29T03:39:09.594Z,82.49
2022-10-29T03:41:39.781Z,82.13
2022-10-29T03:44:10.090Z,81.60
2022-10-29T03:46:40.613Z,81.97
2022-10-29T03:49:10.798Z,82.59
2022-10-29T03:51:40.970Z,81.80
2022-10-29T03:54:11.104Z,82.94
2022-10-29T03:56:41.549Z,82.65
2022-10-29T03:59:11.846Z,82.63
2022-10-29T04:01:42.367Z,81.98
2022-10-29T04:04:15.473Z,82.01
2022-10-29T04:06:45.879Z,81.34
2022-10-29T04:09:16.386Z,82.09
2022-10-29T04:11:46.823Z,82.64
2022-10-29T04:14:17.246Z,82.90
2022-10-29T04:16:47.694Z,82.65
2022-10-29T04:19:17.833Z,83.33
2022-10-29T04:28:17.473Z,83.45
2022-10-29T04:30:20.328Z,84.44
2022-10-29T04:32:50.835Z,82.39
2022-10-29T04:35:21.186Z,83.18
2022-10-29T04:37:51.726Z,84.21
2022-10-29T04:40:21.792Z,84.36
2022-10-29T04:42:52.362Z,83.71
2022-10-29T04:45:22.778Z,83.43
2022-10-29T04:48:02.316Z,83.67
2022-10-29T04:50:34.337Z,84.15
2022-10-29T04:53:06.368Z,83.70
2022-10-29T04:55:39.598Z,83.95
2022-10-29T04:58:13.967Z,84.71
2022-10-29T05:00:45.282Z,84.76
2022-10-29T05:03:15.683Z,84.42
2022-10-29T05:05:45.910Z,83.72
2022-10-29T05:08:16.644Z,82.81
2022-10-29T05:10:46.698Z,84.42
2022-10-29T05:13:17.015Z,84.44
2022-10-29T05:15:53.450Z,84.44
2022-10-29T05:18:23.980Z,84.65
2022-10-29T05:20:58.277Z,85.57
2022-10-29T05:23:28.804Z,85.66
2022-10-29T05:25:59.047Z,85.46
2022-10-29T05:28:28.867Z,84.54
2022-10-29T05:31:03.735Z,85.15
2022-10-29T05:33:34.082Z,85.84
2022-10-29T05:36:03.994Z,86.30
2022-10-29T05:38:34.290Z,85.53
2022-10-29T05:41:04.782Z,86.14
2022-10-29T05:43:35.029Z,86.25
2022-10-29T05:46:05.769Z,85.84
2022-10-29T05:48:36.103Z,84.72
2022-10-29T05:51:06.493Z,86.11
2022-10-29T05:53:36.282Z,85.06
2022-10-29T05:56:06.591Z,85.70
2022-10-29T05:58:36.913Z,85.83
2022-10-29T06:01:12.041Z,86.41
2022-10-29T06:03:42.466Z,86.45
2022-10-29T06:06:12.794Z,86.71
2022-10-29T06:08:42.605Z,86.42
2022-10-29T06:11:12.494Z,88.52
2022-10-29T06:13:42.124Z,87.63
2022-10-29T06:16:12.070Z,88.54
2022-10-29T06:18:42.510Z,89.00
2022-10-29T06:21:12.661Z,88.26
2022-10-29T06:23:43.112Z,87.85
2022-10-29T06:26:13.518Z,87.77
2022-10-29T06:28:43.165Z,86.86
2022-10-29T06:31:12.975Z,88.01
2022-10-29T06:33:43.093Z,87.79
2022-10-29T06:36:13.257Z,87.78
2022-10-29T06:38:43.187Z,86.86
2022-10-29T06:41:13.200Z,88.15
2022-10-29T06:43:43.348Z,89.07
2022-10-29T06:46:13.521Z,89.54
2022-10-29T06:48:43.196Z,88.78
2022-10-29T06:51:13.160Z,89.37
2022-10-29T06:53:43.406Z,88.90
2022-10-29T06:56:13.323Z,88.30
2022-10-29T06:58:43.240Z,89.55
2022-10-29T07:01:13.018Z,88.27
2022-10-29T07:03:43.363Z,89.51
2022-10-29T07:06:13.616Z,89.40
2022-10-29T07:08:43.222Z,88.99
2022-10-29T07:11:13.166Z,90.25
2022-10-29T07:13:42.902Z,89.15
2022-10-29T07:16:12.865Z,90.17
2022-10-29T07:18:42.638Z,88.89
2022-10-29T07:21:12.856Z,90.17
2022-10-29T07:23:43.006Z,90.10
2022-10-29T07:26:13.425Z,90.11
2022-10-29T07:28:43.652Z,90.36
2022-10-29T07:31:13.862Z,90.23
2022-10-29T07:33:43.987Z,90.59
2022-10-29T07:36:14.189Z,90.25
2022-10-29T07:38:44.309Z,90.68
2022-10-29T07:41:14.708Z,90.37
2022-10-29T07:43:44.872Z,90.18
2022-10-29T07:46:15.239Z,90.36
2022-10-29T07:48:45.227Z,90.47
2022-10-29T07:51:15.618Z,90.62
2022-10-29T07:53:45.801Z,90.04
2022-10-29T07:56:16.027Z,90.21
2022-10-29T07:58:45.640Z,89.68
2022-10-29T08:01:15.762Z,90.26
2022-10-29T08:03:45.985Z,90.82
2022-10-29T08:06:15.956Z,90.44
2022-10-29T08:08:46.174Z,90.17
2022-10-29T08:11:15.946Z,89.46
2022-10-29T08:13:45.940Z,90.45
2022-10-29T08:16:16.339Z,90.76
2022-10-29T08:18:47.443Z,90.36
2022-10-29T08:21:18.063Z,90.18
2022-10-29T08:23:48.304Z,90.11
2022-10-29T08:26:18.543Z,89.30
2022-10-29T08:28:48.651Z,90.29
2022-10-29T08:31:18.584Z,89.63
2022-10-29T08:33:50.268Z,90.58
2022-10-29T08:36:20.802Z,90.17
2022-10-29T08:38:51.056Z,90.27
2022-10-29T08:41:29.907Z,89.80
2022-10-29T08:44:18.077Z,90.72
2022-10-29T08:46:57.300Z,90.77
2022-10-29T08:49:42.901Z,90.74
2022-10-29T08:52:25.565Z,91.29
2022-10-29T08:55:20.147Z,91.01
2022-10-29T08:57:57.064Z,91.50
2022-10-29T09:00:44.790Z,90.80
2022-10-29T09:03:15.450Z,91.07
2022-10-29T09:05:57.541Z,91.41
2022-10-29T09:09:04.441Z,91.54
2022-10-29T09:11:46.597Z,91.79
2022-10-29T09:14:33.069Z,91.85
2022-10-29T09:17:33.638Z,91.34
2022-10-29T09:20:25.489Z,91.40
2022-10-29T09:23:08.932Z,91.55
2022-10-29T09:25:57.664Z,90.93
2022-10-29T09:28:40.190Z,90.46
2022-10-29T09:31:19.873Z,91.14
2022-10-29T09:33:53.436Z,90.75
2022-10-29T09:36:26.611Z,90.76
2022-10-29T09:39:05.840Z,90.64
2022-10-29T09:41:36.923Z,90.93
2022-10-29T09:44:26.304Z,90.59
2022-10-29T09:47:09.997Z,89.57
2022-10-29T09:49:49.686Z,89.25
2022-10-29T09:52:50.847Z,89.23
2022-10-29T09:55:26.264Z,88.82
2022-10-29T09:57:59.230Z,88.74
2022-10-29T10:00:32.115Z,87.93
2022-10-29T10:03:20.490Z,87.50
2022-10-29T10:06:10.355Z,87.39
2022-10-29T10:09:00.847Z,87.31
2022-10-29T10:11:43.645Z,87.26
2022-10-29T10:14:22.282Z,86.96
2022-10-29T10:17:02.927Z,87.26
2022-10-29T10:19:34.507Z,86.65
2022-10-29T10:22:08.535Z,86.62
2022-10-29T10:24:42.382Z,86.93
2022-10-29T10:27:21.566Z,85.62
2022-10-29T10:30:07.014Z,84.62
2022-10-29T10:32:37.216Z,85.05
2022-10-29T10:35:30.806Z,84.77
2022-10-29T10:38:09.748Z,83.89
2022-10-29T10:40:40.138Z,84.01
2022-10-29T10:43:22.104Z,83.29
2022-10-29T10:46:00.029Z,83.62
2022-10-29T10:48:33.818Z,82.85
2022-10-29T10:51:21.175Z,82.50
2022-10-29T10:53:52.568Z,82.53
2022-10-29T10:56:24.747Z,81.78
2022-10-29T10:59:05.026Z,81.30
2022-10-29T11:01:46.889Z,80.40
2022-10-29T11:04:25.934Z,80.33
2022-10-29T11:07:01.204Z,80.10
2022-10-29T11:09:44.789Z,80.31
2022-10-29T11:12:31.930Z,79.36
2022-10-29T11:15:46.909Z,78.86
2022-10-29T11:21:27.309Z,77.76
2022-10-29T11:24:06.707Z,78.17
2022-10-29T11:26:51.866Z,77.93
2022-10-29T11:29:40.134Z,77.27
2022-10-29T11:32:31.546Z,76.33
2022-10-29T11:35:05.522Z,75.48
2022-10-29T11:38:11.506Z,75.56
2022-10-29T11:41:33.279Z,75.96
2022-10-29T11:44:03.368Z,74.53
2022-10-29T11:46:36.015Z,73.50
2022-10-29T11:49:19.486Z,71.40
2022-10-29T11:52:18.906Z,73.60
2022-10-29T11:55:36.669Z,72.33
2022-10-29T11:58:18.956Z,70.12
2022-10-29T12:01:23.109Z,70.87
2022-10-29T12:04:00.871Z,70.27
2022-10-29T12:06:56.659Z,70.07
2022-10-29T12:09:32.836Z,69.08
2022-10-29T12:12:18.794Z,68.49
2022-10-29T12:14:49.050Z,67.27
2022-10-29T12:17:34.971Z,67.75
2022-10-29T12:20:08.893Z,67.86
2022-10-29T12:22:59.050Z,67.17
2022-10-29T12:25:56.937Z,66.16
2022-10-29T12:28:44.070Z,68.27
2022-10-29T12:31:47.936Z,66.91
2022-10-29T12:34:45.282Z,65.89
2022-10-29T12:38:00.197Z,66.45
2022-10-29T12:40:36.873Z,66.84
2022-10-29T12:43:12.718Z,66.66
2022-10-29T12:46:20.677Z,66.32
2022-10-29T12:49:03.331Z,65.71
2022-10-29T12:52:00.948Z,65.95
2022-10-29T12:54:37.522Z,65.53
2022-10-29T12:57:21.844Z,64.65
2022-10-29T12:59:52.304Z,65.71
2022-10-29T13:02:40.665Z,63.96
2022-10-29T13:05:11.019Z,63.98
2022-10-29T13:08:00.926Z,64.52
2022-10-29T13:10:36.935Z,64.44
2022-10-29T13:13:15.966Z,63.16
2022-10-29T13:16:06.926Z,63.80
2022-10-29T13:19:05.204Z,63.62
2022-10-29T13:22:01.595Z,63.03
2022-10-29T13:24:32.419Z,63.49
2022-10-29T13:27:25.776Z,62.89
2022-10-29T13:30:17.388Z,62.18
2022-10-29T13:32:47.764Z,60.21
2022-10-29T13:35:20.968Z,61.55
2022-10-29T13:37:57.749Z,59.83
2022-10-29T13:40:33.976Z,61.37
2022-10-29T13:43:20.087Z,58.52
2022-10-29T13:46:16.117Z,61.70
2022-10-29T13:48:48.117Z,59.41
2022-10-29T13:51:31.227Z,59.17
2022-10-29T13:54:10.329Z,57.21
2022-10-29T13:56:48.386Z,56.90
2022-10-29T13:59:32.777Z,58.82
2022-10-29T14:02:32.538Z,57.15
2022-10-29T14:05:18.286Z,57.89
2022-10-29T14:07:53.074Z,56.23
2022-10-29T14:10:41.514Z,55.67
2022-10-29T14:13:14.104Z,54.24
2022-10-29T14:16:08.771Z,56.02
2022-10-29T14:18:41.415Z,55.39
2022-10-29T14:21:28.502Z,55.45
2022-10-29T14:24:01.810Z,56.26
2022-10-29T14:26:34.774Z,56.29
2022-10-29T14:29:25.887Z,54.42
2022-10-29T14:32:21.091Z,56.25
2022-10-29T14:34:52.583Z,56.62
2022-10-29T14:37:48.627Z,57.24
2022-10-29T14:40:22.783Z,55.93
2022-10-29T14:42:56.838Z,56.33
2022-10-29T14:45:32.760Z,54.92
2022-10-29T14:48:11.232Z,56.22
2022-10-29T14:50:51.457Z,55.28
2022-10-29T14:53:35.014Z,55.72
2022-10-29T14:56:12.801Z,55.91
2022-10-29T14:58:43.557Z,54.49
2022-10-29T15:01:21.540Z,55.02
2022-10-29T15:04:00.304Z,54.66
2022-10-29T15:06:31.402Z,54.59
2022-10-29T15:09:05.041Z,55.20
2022-10-29T15:11:39.845Z,56.52
2022-10-29T15:14:46.846Z,57.44
2022-10-29T15:17:30.770Z,58.76
2022-10-29T15:20:05.301Z,60.94
2022-10-29T15:22:39.215Z,62.12
2022-10-29T15:25:16.928Z,64.30
2022-10-29T15:27:47.367Z,68.36
2022-10-29T15:32:53.066Z,86.93
2022-10-29T15:35:24.869Z,92.85
2022-10-29T15:37:56.060Z,97.35
2022-10-29T15:40:27.466Z,97.28
2022-10-29T15:42:58.253Z,97.44
2022-10-29T15:45:29.910Z,97.17
2022-10-29T15:48:37.899Z,97.72
2022-10-29T15:51:08.699Z,98.05
2022-10-29T15:53:38.955Z,95.89
2022-10-29T15:56:14.672Z,94.50
2022-10-29T15:58:45.001Z,93.81
2022-10-29T16:01:18.697Z,95.18
2022-10-29T16:03:49.062Z,95.73
2022-10-29T16:06:19.283Z,92.03
2022-10-29T16:08:53.468Z,93.48
2022-10-29T16:11:43.688Z,93.58
2022-10-29T16:14:13.956Z,92.05
2022-10-29T16:16:44.174Z,89.52
2022-10-29T16:19:14.462Z,88.44
2022-10-29T16:21:44.936Z,90.89
2022-10-29T16:24:16.888Z,91.65
2022-10-29T16:26:47.234Z,89.56
2022-10-29T16:29:17.510Z,92.45
2022-10-29T16:31:47.951Z,92.05
2022-10-29T16:34:20.753Z,89.64
2022-10-29T16:36:54.107Z,89.55
2022-10-29T16:39:24.385Z,86.61
2022-10-29T16:41:54.777Z,88.87
2022-10-29T16:44:24.944Z,85.50
2022-10-29T16:46:55.251Z,90.48
2022-10-29T16:49:25.588Z,88.19
2022-10-29T16:51:56.360Z,89.01
2022-10-29T16:54:26.388Z,88.66
2022-10-29T16:56:59.357Z,87.00
2022-10-29T16:59:30.160Z,84.83
2022-10-29T17:02:02.093Z,87.47
2022-10-29T17:04:32.415Z,85.29
2022-10-29T17:07:02.856Z,85.82
2022-10-29T17:09:36.486Z,84.91
2022-10-29T17:12:07.120Z,86.07
2022-10-29T17:14:37.289Z,81.26
2022-10-29T17:17:07.879Z,80.21
2022-10-29T17:19:38.418Z,80.81
2022-10-29T17:22:11.795Z,78.07
2022-10-29T17:24:42.099Z,78.07
2022-10-29T17:27:15.722Z,81.31
2022-10-29T17:29:45.868Z,76.68
2022-10-29T17:32:16.563Z,79.68
2022-10-29T17:34:46.740Z,74.76
2022-10-29T17:37:17.142Z,76.27
2022-10-29T17:39:47.363Z,77.92
2022-10-29T17:42:17.649Z,75.43
2022-10-29T17:44:47.896Z,75.77
2022-10-29T17:47:18.163Z,76.55
2022-10-29T17:49:48.368Z,77.29
2022-10-29T17:52:19.383Z,75.11
2022-10-29T17:54:49.612Z,76.19
2022-10-29T17:57:19.737Z,76.22
2022-10-29T17:59:49.210Z,74.39
2022-10-29T18:02:19.186Z,73.35
2022-10-29T18:04:49.665Z,73.20
2022-10-29T18:07:19.948Z,75.63
2022-10-29T18:09:50.277Z,75.46
2022-10-29T18:12:20.518Z,72.98
2022-10-29T18:14:50.823Z,73.44
2022-10-29T18:17:21.069Z,73.82
2022-10-29T18:19:51.452Z,71.72
2022-10-29T18:22:21.728Z,71.87
2022-10-29T18:24:52.062Z,73.44
2022-10-29T18:27:22.359Z,69.18
2022-10-29T18:29:52.742Z,71.63
2022-10-29T18:32:22.944Z,71.35
2022-10-29T18:34:53.295Z,72.14
2022-10-29T18:37:23.289Z,73.75
2022-10-29T18:39:54.265Z,73.33
2022-10-29T18:42:24.388Z,71.82
2022-10-29T18:44:53.863Z,71.19
2022-10-29T18:47:24.194Z,67.57
2022-10-29T18:49:54.380Z,66.17
2022-10-29T18:52:25.078Z,68.25
2022-10-29T18:54:55.400Z,68.38
2022-10-29T18:57:25.623Z,63.45
2022-10-29T18:59:55.784Z,69.38
2022-10-29T19:02:25.347Z,68.76
2022-10-29T19:04:55.532Z,65.06
2022-10-29T19:07:25.041Z,66.52
2022-10-29T19:09:55.299Z,67.42
2022-10-29T19:12:25.489Z,64.16
2022-10-29T19:14:55.875Z,63.90
2022-10-29T19:17:26.105Z,62.97
2022-10-29T19:19:56.287Z,64.90
2022-10-29T19:22:26.483Z,66.43
2022-10-29T19:24:56.757Z,66.41
2022-10-29T19:27:26.984Z,66.58
2022-10-29T19:29:57.276Z,68.29
2022-10-29T19:32:27.449Z,66.95
2022-10-29T19:34:57.775Z,69.12
2022-10-29T19:37:27.973Z,65.86
2022-10-29T19:39:58.359Z,66.33
2022-10-29T19:42:28.482Z,68.02
2022-10-29T19:44:58.718Z,68.38
2022-10-29T19:47:28.909Z,66.72
2022-10-29T19:49:59.147Z,68.58
2022-10-29T19:52:29.294Z,67.60
2022-10-29T19:54:59.879Z,67.93
2022-10-29T19:57:30.061Z,66.88
2022-10-29T20:00:00.388Z,66.80
2022-10-29T20:02:30.677Z,64.34
2022-10-29T20:05:00.916Z,64.23
2022-10-29T20:07:31.174Z,66.30
2022-10-29T20:10:01.723Z,64.84
2022-10-29T20:12:32.085Z,63.33
2022-10-29T20:15:02.434Z,64.67
2022-10-29T20:17:33.185Z,62.26
2022-10-29T20:20:03.471Z,63.71
2022-10-29T20:22:33.400Z,63.46
2022-10-29T20:25:03.822Z,64.36
2022-10-29T20:27:33.989Z,68.86
2022-10-29T20:30:04.274Z,65.35
2022-10-29T20:32:34.581Z,68.74
2022-10-29T20:35:05.087Z,69.15
2022-10-29T20:37:52.815Z,70.79
2022-10-29T20:40:23.020Z,70.11
2022-10-29T20:42:53.327Z,70.09
2022-10-29T20:45:23.701Z,68.52
2022-10-29T20:47:53.901Z,69.31
2022-10-29T20:50:24.475Z,69.54
2022-10-29T20:52:55.037Z,69.63
2022-10-29T20:55:25.848Z,69.53
2022-10-29T20:57:56.436Z,68.83
2022-10-29T21:00:26.926Z,66.82
2022-10-29T21:02:57.121Z,69.10
2022-10-29T21:05:27.551Z,69.48
2022-10-29T21:07:57.985Z,68.99
2022-10-29T21:10:28.416Z,68.82
2022-10-29T21:12:58.694Z,67.96
2022-10-29T21:15:29.325Z,68.50
2022-10-29T21:18:00.921Z,66.97
2022-10-29T21:20:31.126Z,68.93
2022-10-29T21:23:01.321Z,70.75
2022-10-29T21:25:31.541Z,67.93
2022-10-29T21:28:01.770Z,68.73
2022-10-29T21:30:32.276Z,69.98
2022-10-29T21:33:02.434Z,70.53
2022-10-29T21:35:32.664Z,70.57
2022-10-29T21:38:02.949Z,70.74
2022-10-29T21:40:33.263Z,70.53
2022-10-29T21:43:03.445Z,75.58
2022-10-29T21:45:33.588Z,70.63
2022-10-29T21:48:03.863Z,74.14
2022-10-29T21:50:34.426Z,71.50
2022-10-29T21:53:05.006Z,72.62
2022-10-29T21:55:36.491Z,73.91
2022-10-29T21:58:08.641Z,73.53
2022-10-29T22:00:39.018Z,74.71
2022-10-29T22:03:09.179Z,73.94
2022-10-29T22:05:39.448Z,73.26
2022-10-29T22:08:09.701Z,73.66
2022-10-29T22:10:40.057Z,75.01
2022-10-29T22:13:13.462Z,74.36
2022-10-29T22:15:46.868Z,73.62
2022-10-29T22:18:16.994Z,75.52
2022-10-29T22:20:47.261Z,74.30
2022-10-29T22:23:17.443Z,78.95
2022-10-29T22:25:52.471Z,77.04
2022-10-29T22:28:22.781Z,74.51
2022-10-29T22:31:02.441Z,75.48
2022-10-29T22:33:33.349Z,76.82
2022-10-29T22:36:24.402Z,75.69
2022-10-29T22:38:59.372Z,74.68
2022-10-29T22:41:31.089Z,78.12
2022-10-29T22:44:01.469Z,76.76
2022-10-29T22:46:32.570Z,76.03
2022-10-29T22:49:05.965Z,76.64
2022-10-29T22:51:36.712Z,75.03
2022-10-29T22:54:07.489Z,75.13
2022-10-29T22:56:40.487Z,76.00
2022-10-29T22:59:10.816Z,75.07
2022-10-29T23:01:44.233Z,75.60
2022-10-29T23:04:16.951Z,76.52
2022-10-29T23:06:49.130Z,75.90
2022-10-29T23:09:19.385Z,76.68
2022-10-29T23:11:49.683Z,78.51
2022-10-29T23:14:19.818Z,77.65
2022-10-29T23:16:49.887Z,79.24
2022-10-29T23:19:20.228Z,79.08
2022-10-29T23:21:50.457Z,77.64
2022-10-29T23:24:20.616Z,79.68
2022-10-29T23:26:50.931Z,78.58
2022-10-29T23:29:21.131Z,78.91
2022-10-29T23:31:51.371Z,78.27
2022-10-29T23:34:21.859Z,77.76
2022-10-29T23:39:27.269Z,78.34
2022-10-29T23:41:57.522Z,80.90
2022-10-29T23:44:27.657Z,79.66
2022-10-29T23:46:57.307Z,77.92
2022-10-29T23:49:27.314Z,77.83
2022-10-29T23:51:57.583Z,78.91
2022-10-29T23:54:27.796Z,79.71
2022-10-29T23:56:58.177Z,78.85
2022-10-29T23:59:28.428Z,78.83
